Nearby METAR Reports

 

LEXJ - Santander/Paraya, Spain
Distancia a la estación: ESE 6km
Actualizado: 17/10/2017 13:00
Despejado
Despejado
 Viento del SSO
Viento: SSO 20 km/h
Temperatura: 24°C
Rocío: 11°C
Humedad: 44%
Barómetro: 1014 hPa
Resumen: Despejado
Visibilidad: greater than 10 km
2017/10/17 11:00 LEXJ 171100Z 20011KT 160V240 CAVOK 24/11 Q1014
LEBB - Bilbao/Sondica, Spain
Distancia a la estación: ESE 80km
Actualizado: 17/10/2017 13:00
Despejado
Despejado
 Viento del S
Viento: S 13 km/h
Temperatura: 26°C
Rocío: 14°C
Humedad: 48%
Barómetro: 1016 hPa
Resumen: Despejado
Visibilidad: greater than 10 km
2017/10/17 11:00 LEBB 171100Z 17007KT 110V210 CAVOK 26/14 Q1016 NOSIG
 
LEZG - Zaragoza (mil/Ci, Spain
Distancia a la estación: NNE 176km
Actualizado: 17/10/2017 13:00
Nubes dispersas
Nubes dispersas
 Viento del E
Viento: E 19 km/h
Temperatura: 21°C
Rocío: 13°C
Humedad: 60%
Barómetro: 1022 hPa
Nubes: Nubes dispersas
Visibilidad: 10 km
Detalle Nubes: Nubes dispersas 549 m
2017/10/17 11:00 LEZG 171100Z 10010KT 070V150 9999 FEW018 21/13 Q1022
LEVT - Vitoria, Spain
Distancia a la estación: ESE 114km
Actualizado: 17/10/2017 13:00
Nubes dispersas
Nubes dispersas
 Viento del ENE
Viento: ENE 6 km/h
Temperatura: 21°C
Rocío: 11°C
Humedad: 53%
Barómetro: 1019 hPa
Nubes: Nubes dispersas
Visibilidad: 10 km
Detalle Nubes: Nubes dispersas 914 m
2017/10/17 11:00 LEVT 171100Z 06003KT 360V110 9999 FEW030 21/11 Q1019
 
LEBG - Burgos/Villafria, Spain
Distancia a la estación: S 122km
Actualizado: 17/10/2017 13:00
Nubes dispersas
Nubes dispersas
 Viento del SSE
Viento: SSE 30 km/h
Temperatura: 20°C
Rocío: 6°C
Humedad: 40%
Barómetro: 1019 hPa
Nubes: Nubes dispersas
Visibilidad: 10 km
Detalle Nubes: Nubes dispersas 1829 m
2017/10/17 11:00 LEBG 171100Z 16016KT 9999 FEW060 20/06 Q1019
LELO - Logrono/Agoncill, Spain
Distancia a la estación: SE 169km
Actualizado: 17/10/2017 13:00
Nubes dispersas
Nubes dispersas
 Viento del E
Viento: E 33 km/h
Temperatura: 19°C
Rocío: 13°C
Humedad: 68%
Barómetro: 1020 hPa
Nubes: Nubes dispersas
Visibilidad: 10 km
Detalle Nubes: Nubes dispersas 457 m
2017/10/17 11:00 LELO 171100Z 09018KT 060V120 9999 FEW015 19/13 Q1020
 
LESO - San Sebastian/Fu, Spain
Distancia a la estación: E 169km
Actualizado: 17/10/2017 13:00
Despejado
Despejado
 Viento del SSE
Viento: SSE 19 km/h, Racha: 37 km/h
Temperatura: 26°C
Rocío: 11°C
Humedad: 39%
Barómetro: 1016 hPa
Resumen: Despejado
Visibilidad: greater than 10 km
2017/10/17 11:00 LESO 171100Z 16010G20KT 120V210 CAVOK 26/11 Q1016
LEAS - Asturias/Aviles, Spain
Distancia a la estación: O 172km
Actualizado: 17/10/2017 13:00
Mist, Few clouds
Mist, Few clouds
 Viento del ONO
Viento: ONO 15 km/h
Temperatura: 16°C
Rocío: 15°C
Humedad: 94%
Barómetro: 1015 hPa
Resumen: Mist
Nubes: Nubes dispersas
Visibilidad: 5 km
Detalle Nubes: Nubes dispersas 1524 m
2017/10/17 11:00 LEAS 171100Z 29008KT 260V330 4500 BR FEW050 16/15 Q1015 TEMPO 8000 NSW
 
LELN - Leon/Virgen Cami, Spain
Distancia a la estación: SO 174km
Actualizado: 17/10/2017 13:00
Lluvia, Muy nuboso
Lluvia, Muy nuboso
 Viento del SSE
Viento: SSE 13 km/h
Temperatura: 13°C
Rocío: 13°C
Humedad: 100%
Barómetro: 1018 hPa
Resumen: Lluvia
Nubes: Muy nuboso
Visibilidad: 6 km
Detalle Nubes: Nubes dispersas 305 m
Parcialmente nuboso 549 m
Muy nuboso 945 m
2017/10/17 11:00 LELN 171100Z 16007KT 130V200 6000 RA FEW010 SCT018 BKN031 13/13 Q1018
LFBZ - Biarritz/Anglet, France
Distancia a la estación: E 191km
Actualizado: 17/10/2017 13:00
Despejado
Despejado
 Viento del S
Viento: S 15 km/h
Temperatura: 26°C
Rocío: 13°C
Humedad: 45%
Barómetro: 1016 hPa
Resumen: Despejado
Visibilidad: greater than 10 km
2017/10/17 11:00 LFBZ 171100Z AUTO 17008KT 120V210 CAVOK 26/13 Q1016 TEMPO 18015G25KT
 
LEPP - Pamplona/Noain, Spain
Distancia a la estación: ESE 199km
Actualizado: 17/10/2017 13:00
Nubes dispersas
Nubes dispersas
 Viento del S
Viento: S 13 km/h
Temperatura: 21°C
Rocío: 11°C
Humedad: 53%
Barómetro: 1021 hPa
Nubes: Nubes dispersas
Visibilidad: 10 km
Detalle Nubes: Nubes dispersas 853 m
2017/10/17 11:00 LEPP 171100Z 19007KT 150V230 9999 FEW028 21/11 Q1021
LEBL - Barcelona Airpor, Spain
Distancia a la estación: ESE 554km
Actualizado: 17/10/2017 13:00
Nubes dispersas
Nubes dispersas
 Viento del S
Viento: S 9 km/h
Temperatura: 24°C
Rocío: 16°C
Humedad: 61%
Barómetro: 1023 hPa
Nubes: Nubes dispersas
Visibilidad: 10 km
Detalle Nubes: Nubes dispersas 762 m
2017/10/17 11:00 LEBL 171100Z 17005KT 100V230 9999 FEW025 24/16 Q1023 NOSIG
 
LEMD - Madrid/Barajas, Spain
Distancia a la estación: S 325km
Actualizado: 17/10/2017 13:00
Despejado
Despejado
 Viento del ESE
Viento: ESE 4 km/h
Temperatura: 18°C
Rocío: 11°C
Humedad: 64%
Barómetro: 1022 hPa
Resumen: Despejado
Visibilidad: greater than 10 km
2017/10/17 11:00 LEMD 171100Z 11002KT CAVOK 18/11 Q1022 NOSIG
LPPT - Lisbon/Portela, Portugal
Distancia a la estación: SO 663km
Actualizado: 17/10/2017 13:00
Nubes dispersas
Nubes dispersas
 Viento del OSO
Viento: OSO 15 km/h
Temperatura: 20°C
Rocío: 12°C
Humedad: 60%
Barómetro: 1020 hPa
Nubes: Nubes dispersas
Visibilidad: 10 km
Detalle Nubes: Nubes dispersas 823 m
2017/10/17 11:00 LPPT 171100Z 25008KT 210V270 9999 FEW027 20/12 Q1020
 
LECO - La Coruna/Alvedr, Spain
Distancia a la estación: O 349km
Actualizado: 17/10/2017 13:00
Nubes dispersas
Nubes dispersas
 Viento del SSO
Viento: SSO 19 km/h
Temperatura: 17°C
Rocío: 12°C
Humedad: 73%
Barómetro: 1016 hPa
Nubes: Nubes dispersas
Visibilidad: 10 km
Detalle Nubes: Nubes dispersas 762 m
2017/10/17 11:00 LECO 171100Z 21010KT 150V250 9999 FEW025 17/12 Q1016 NOSIG
LEST - Santiago/Labacol, Spain
Distancia a la estación: O 358km
Actualizado: 17/10/2017 13:00
Nubes dispersas
Nubes dispersas
 Viento del SO
Viento: SO 19 km/h
Temperatura: 15°C
Rocío: 10°C
Humedad: 72%
Barómetro: 1017 hPa
Nubes: Nubes dispersas
Visibilidad: 10 km
Detalle Nubes: Nubes dispersas 549 m
2017/10/17 11:00 LEST 171100Z 23010KT 180V280 9999 FEW018 15/10 Q1017 NOSIG